createdAt,value
2022-08-16T00:00:04.393Z,19.10
2022-08-16T00:01:02.820Z,19.07
2022-08-16T00:02:02.920Z,19.06
2022-08-16T00:03:02.977Z,19.02
2022-08-16T00:04:05.127Z,18.94
2022-08-16T00:05:03.121Z,18.99
2022-08-16T00:06:03.213Z,18.97
2022-08-16T00:07:03.277Z,19.01
2022-08-16T00:08:04.924Z,19.01
2022-08-16T00:09:03.443Z,19.06
2022-08-16T00:10:03.517Z,19.07
2022-08-16T00:11:03.647Z,19.09
2022-08-16T00:12:03.685Z,19.10
2022-08-16T00:13:03.768Z,19.12
2022-08-16T00:14:08.871Z,19.12
2022-08-16T00:15:03.943Z,19.15
2022-08-16T00:17:05.331Z,19.16
2022-08-16T00:17:20.406Z,19.16
2022-08-16T00:18:04.179Z,19.15
2022-08-16T00:19:04.278Z,19.17
2022-08-16T00:20:04.355Z,19.21
2022-08-16T00:21:04.468Z,19.21
2022-08-16T00:22:06.944Z,19.09
2022-08-16T00:23:04.604Z,19.06
2022-08-16T00:24:05.105Z,19.05
2022-08-16T00:25:04.757Z,19.06
2022-08-16T00:26:35.391Z,19.02
2022-08-16T00:27:04.915Z,19.01
2022-08-16T00:28:04.961Z,18.97
2022-08-16T00:29:05.052Z,18.94
2022-08-16T00:30:19.154Z,18.93
2022-08-16T00:31:05.246Z,18.99
2022-08-16T00:32:05.947Z,18.96
2022-08-16T00:33:05.363Z,18.97
2022-08-16T00:34:05.422Z,19.02
2022-08-16T00:35:09.917Z,19.07
2022-08-16T00:36:05.593Z,19.10
2022-08-16T00:37:05.633Z,19.17
2022-08-16T00:38:40.961Z,19.24
2022-08-16T00:39:05.823Z,19.30
2022-08-16T00:40:05.915Z,19.34
2022-08-16T00:41:06.114Z,19.32
2022-08-16T00:42:06.074Z,19.25
2022-08-16T00:43:06.139Z,19.16
2022-08-16T00:44:06.239Z,19.13
2022-08-16T00:45:08.611Z,19.16
2022-08-16T00:46:32.891Z,19.20
2022-08-16T00:47:06.778Z,19.13
2022-08-16T00:48:28.640Z,19.15
2022-08-16T00:49:06.646Z,19.16
2022-08-16T00:50:08.259Z,19.21
2022-08-16T00:51:06.806Z,19.25
2022-08-16T00:52:29.157Z,19.28
2022-08-16T00:53:06.953Z,19.30
2022-08-16T00:54:07.035Z,19.32
2022-08-16T00:55:08.457Z,19.32
2022-08-16T00:56:07.203Z,19.35
2022-08-16T00:57:07.274Z,19.39
2022-08-16T00:58:12.927Z,19.43
2022-08-16T00:59:07.460Z,19.46
2022-08-16T01:00:07.554Z,19.49
2022-08-16T01:01:10.377Z,19.52
2022-08-16T01:02:30.275Z,19.53
2022-08-16T01:03:07.805Z,19.57
2022-08-16T01:04:29.444Z,19.58
2022-08-16T01:05:11.678Z,19.61
2022-08-16T01:06:39.884Z,19.62
2022-08-16T01:07:08.175Z,19.64
2022-08-16T01:08:35.204Z,19.65
2022-08-16T01:09:08.489Z,19.67
2022-08-16T01:10:15.915Z,19.62
2022-08-16T01:11:08.513Z,19.61
2022-08-16T01:12:10.654Z,19.62
2022-08-16T01:13:08.633Z,19.64
2022-08-16T01:14:09.199Z,19.64
2022-08-16T01:15:08.801Z,19.65
2022-08-16T01:16:10.303Z,19.67
2022-08-16T01:17:08.990Z,19.68
2022-08-16T01:18:09.079Z,19.70
2022-08-16T01:19:09.164Z,19.72
2022-08-16T01:20:24.311Z,19.76
2022-08-16T01:21:09.344Z,19.72
2022-08-16T01:22:49.566Z,19.72
2022-08-16T01:23:09.483Z,19.76
2022-08-16T01:24:53.210Z,19.75
2022-08-16T01:25:09.638Z,19.76
2022-08-16T01:26:34.382Z,19.76
2022-08-16T01:27:09.788Z,19.78
2022-08-16T01:28:09.864Z,19.80
2022-08-16T01:29:10.241Z,19.80
2022-08-16T01:30:20.434Z,19.80
2022-08-16T01:31:10.138Z,19.83
2022-08-16T01:32:10.224Z,19.83
2022-08-16T01:33:15.321Z,19.85
2022-08-16T01:34:19.401Z,19.85
2022-08-16T01:35:16.889Z,19.85
2022-08-16T01:36:11.885Z,19.87
2022-08-16T01:37:10.578Z,19.89
2022-08-16T01:38:10.649Z,19.90
2022-08-16T01:39:11.788Z,19.92
2022-08-16T01:40:10.822Z,19.90
2022-08-16T01:41:10.900Z,19.94
2022-08-16T01:42:13.080Z,19.94
2022-08-16T01:43:11.067Z,19.94
2022-08-16T01:44:11.145Z,19.92
2022-08-16T01:45:11.224Z,19.94
2022-08-16T01:46:30.144Z,19.94
2022-08-16T01:47:11.432Z,19.95
2022-08-16T01:48:19.283Z,19.97
2022-08-16T01:49:11.577Z,19.95
2022-08-16T01:50:43.208Z,19.95
2022-08-16T01:51:16.705Z,19.90
2022-08-16T01:52:29.550Z,19.92
2022-08-16T01:53:12.063Z,19.90
2022-08-16T01:54:13.298Z,19.89
2022-08-16T01:55:12.070Z,19.90
2022-08-16T01:56:24.563Z,19.90
2022-08-16T01:57:12.268Z,19.90
2022-08-16T01:58:12.424Z,19.92
2022-08-16T01:59:15.430Z,19.92
2022-08-16T02:00:19.347Z,19.94
2022-08-16T02:01:12.628Z,19.94
2022-08-16T02:02:26.843Z,19.95
2022-08-16T02:03:12.792Z,19.95
2022-08-16T02:04:12.789Z,19.94
2022-08-16T02:05:12.875Z,19.94
2022-08-16T02:06:12.946Z,19.92
2022-08-16T02:07:13.042Z,19.90
2022-08-16T02:08:33.933Z,19.87
2022-08-16T02:09:13.199Z,19.87
2022-08-16T02:10:13.269Z,19.89
2022-08-16T02:11:13.347Z,19.90
2022-08-16T02:12:49.406Z,19.89
2022-08-16T02:13:13.483Z,19.89
2022-08-16T02:14:18.145Z,19.87
2022-08-16T02:15:13.634Z,19.86
2022-08-16T02:16:18.417Z,19.85
2022-08-16T02:17:13.827Z,19.80
2022-08-16T02:18:13.897Z,19.82
2022-08-16T02:19:16.146Z,19.78
2022-08-16T02:20:14.086Z,19.78
2022-08-16T02:21:14.161Z,19.78
2022-08-16T02:22:33.380Z,19.76
2022-08-16T02:23:14.303Z,19.72
2022-08-16T02:24:32.143Z,19.70
2022-08-16T02:25:14.610Z,19.68
2022-08-16T02:26:16.958Z,19.64
2022-08-16T02:27:14.632Z,19.62
2022-08-16T02:28:17.273Z,19.60
2022-08-16T02:29:14.776Z,19.61
2022-08-16T02:30:37.553Z,19.60
2022-08-16T02:31:14.933Z,19.57
2022-08-16T02:32:49.732Z,19.55
2022-08-16T02:33:15.471Z,19.50
2022-08-16T02:34:15.142Z,19.46
2022-08-16T02:35:16.038Z,19.35
2022-08-16T02:36:47.308Z,19.27
2022-08-16T02:37:15.424Z,19.23
2022-08-16T02:38:15.488Z,19.15
2022-08-16T02:39:15.556Z,19.06
2022-08-16T02:40:16.377Z,18.99
2022-08-16T02:41:15.719Z,19.01
2022-08-16T02:42:15.831Z,19.02
2022-08-16T02:43:15.891Z,19.02
2022-08-16T02:44:15.992Z,19.02
2022-08-16T02:45:16.050Z,19.05
2022-08-16T02:46:16.149Z,19.06
2022-08-16T02:47:25.214Z,19.07
2022-08-16T02:48:28.945Z,19.07
2022-08-16T02:49:16.781Z,19.12
2022-08-16T02:50:54.118Z,19.10
2022-08-16T02:51:16.554Z,19.09
2022-08-16T02:52:17.211Z,19.07
2022-08-16T02:53:18.046Z,19.07
2022-08-16T02:54:17.002Z,19.07
2022-08-16T02:55:16.877Z,19.07
2022-08-16T02:56:16.979Z,19.09
2022-08-16T02:57:17.063Z,19.06
2022-08-16T02:58:17.141Z,19.07
2022-08-16T02:59:17.190Z,19.07
2022-08-16T03:00:34.023Z,19.06
2022-08-16T03:01:17.375Z,19.07
2022-08-16T03:02:17.518Z,19.06
2022-08-16T03:03:17.695Z,19.06
2022-08-16T03:04:41.351Z,18.91
2022-08-16T03:05:17.728Z,18.89
2022-08-16T03:06:42.068Z,18.87
2022-08-16T03:07:17.895Z,18.87
2022-08-16T03:08:52.611Z,18.87
2022-08-16T03:09:18.007Z,18.87
2022-08-16T03:10:18.071Z,18.86
2022-08-16T03:11:21.783Z,18.82
2022-08-16T03:12:18.249Z,18.82
2022-08-16T03:13:18.284Z,18.83
2022-08-16T03:14:21.170Z,18.82
2022-08-16T03:15:18.458Z,18.83
2022-08-16T03:16:37.958Z,18.82
2022-08-16T03:17:18.662Z,18.84
2022-08-16T03:18:34.431Z,18.86
2022-08-16T03:19:18.814Z,18.84
2022-08-16T03:20:18.881Z,18.84
2022-08-16T03:21:18.960Z,18.84
2022-08-16T03:22:28.833Z,18.83
2022-08-16T03:23:19.114Z,18.82
2022-08-16T03:24:29.215Z,18.82
2022-08-16T03:25:19.277Z,18.86
2022-08-16T03:26:19.363Z,18.82
2022-08-16T03:27:19.463Z,18.79
2022-08-16T03:28:19.532Z,18.76
2022-08-16T03:29:19.607Z,18.75
2022-08-16T03:30:19.827Z,18.75
2022-08-16T03:31:19.757Z,18.74
2022-08-16T03:32:19.877Z,18.74
2022-08-16T03:33:19.937Z,18.71
2022-08-16T03:34:20.035Z,18.68
2022-08-16T03:35:20.111Z,18.64
2022-08-16T03:36:31.235Z,18.65
2022-08-16T03:37:20.315Z,18.62
2022-08-16T03:38:32.973Z,18.64
2022-08-16T03:39:20.685Z,18.65
2022-08-16T03:40:31.376Z,18.62
2022-08-16T03:41:25.080Z,18.60
2022-08-16T03:42:23.064Z,18.60
2022-08-16T03:43:21.760Z,18.59
2022-08-16T03:44:44.325Z,18.59
2022-08-16T03:45:23.742Z,18.59
2022-08-16T03:46:47.729Z,18.59
2022-08-16T03:47:21.170Z,18.60
2022-08-16T03:48:21.243Z,18.56
2022-08-16T03:49:22.599Z,18.56
2022-08-16T03:50:25.953Z,18.54
2022-08-16T03:51:23.612Z,18.54
2022-08-16T03:52:23.419Z,18.53
2022-08-16T03:53:21.629Z,18.53
2022-08-16T03:54:21.721Z,18.51
2022-08-16T03:55:21.799Z,18.51
2022-08-16T03:56:21.886Z,18.51
2022-08-16T03:57:21.984Z,18.50
2022-08-16T03:58:22.048Z,18.51
2022-08-16T03:59:22.122Z,18.53
2022-08-16T04:00:35.156Z,18.53
2022-08-16T04:01:22.383Z,18.53
2022-08-16T04:02:31.690Z,18.49
2022-08-16T04:03:22.488Z,18.42
2022-08-16T04:04:32.523Z,18.44
2022-08-16T04:05:22.625Z,18.46
2022-08-16T04:06:22.697Z,18.44
2022-08-16T04:07:22.777Z,18.42
2022-08-16T04:08:24.533Z,18.38
2022-08-16T04:09:22.919Z,18.32
2022-08-16T04:10:36.579Z,18.31
2022-08-16T04:11:23.789Z,18.29
2022-08-16T04:12:54.778Z,18.29
2022-08-16T04:14:01.161Z,18.23
2022-08-16T04:14:32.508Z,18.20
2022-08-16T04:15:23.412Z,18.17
2022-08-16T04:16:27.171Z,18.16
2022-08-16T04:17:24.315Z,18.16
2022-08-16T04:18:23.645Z,18.19
2022-08-16T04:19:23.715Z,18.20
2022-08-16T04:20:34.061Z,18.20
2022-08-16T04:21:29.303Z,18.19
2022-08-16T04:22:27.613Z,18.20
2022-08-16T04:23:24.038Z,18.21
2022-08-16T04:24:28.891Z,18.20
2022-08-16T04:25:24.183Z,18.20
2022-08-16T04:26:24.283Z,18.23
2022-08-16T04:27:29.071Z,18.20
2022-08-16T04:28:54.435Z,18.20
2022-08-16T04:29:25.121Z,18.16
2022-08-16T04:30:31.988Z,18.13
2022-08-16T04:31:24.710Z,17.99
2022-08-16T04:32:24.808Z,17.96
2022-08-16T04:33:27.406Z,17.98
2022-08-16T04:34:25.052Z,17.98
2022-08-16T04:35:24.977Z,17.99
2022-08-16T04:36:25.080Z,17.99
2022-08-16T04:37:25.506Z,18.02
2022-08-16T04:38:25.222Z,18.05
2022-08-16T04:39:46.198Z,18.05
2022-08-16T04:40:25.583Z,18.07
2022-08-16T04:41:32.942Z,18.09
2022-08-16T04:42:27.523Z,18.09
2022-08-16T04:43:25.588Z,18.09
2022-08-16T04:44:32.764Z,18.10
2022-08-16T04:45:35.563Z,18.13
2022-08-16T04:47:00.955Z,18.10
2022-08-16T04:47:31.534Z,18.09
2022-08-16T04:48:28.406Z,18.13
2022-08-16T04:49:26.077Z,18.14
2022-08-16T04:50:30.333Z,18.17
2022-08-16T04:51:26.236Z,18.17
2022-08-16T04:52:33.622Z,18.19
2022-08-16T04:53:26.402Z,18.21
2022-08-16T04:54:26.440Z,18.25
2022-08-16T04:55:31.682Z,18.26
2022-08-16T04:56:26.596Z,18.29
2022-08-16T04:57:30.214Z,18.31
2022-08-16T04:58:44.009Z,18.28
2022-08-16T04:59:29.529Z,18.29
2022-08-16T05:00:32.657Z,18.32
2022-08-16T05:01:56.070Z,18.36
2022-08-16T05:02:41.636Z,18.42
2022-08-16T05:03:27.220Z,18.47
2022-08-16T05:04:30.007Z,18.56
2022-08-16T05:05:32.710Z,18.62
2022-08-16T05:06:42.374Z,18.69
2022-08-16T05:07:27.466Z,18.59
2022-08-16T05:08:28.155Z,18.59
2022-08-16T05:09:28.503Z,18.60
2022-08-16T05:10:27.705Z,18.65
2022-08-16T05:11:32.152Z,18.69
2022-08-16T05:12:30.707Z,18.72
2022-08-16T05:13:40.640Z,18.75
2022-08-16T05:14:45.380Z,18.78
2022-08-16T05:15:28.115Z,18.83
2022-08-16T05:16:28.202Z,18.86
2022-08-16T05:17:28.272Z,18.87
2022-08-16T05:18:28.354Z,18.89
2022-08-16T05:19:28.426Z,18.91
2022-08-16T05:20:38.794Z,18.94
2022-08-16T05:21:35.965Z,18.94
2022-08-16T05:22:28.734Z,18.96
2022-08-16T05:23:31.597Z,18.94
2022-08-16T05:24:28.817Z,18.96
2022-08-16T05:25:29.618Z,18.94
2022-08-16T05:26:28.989Z,18.94
2022-08-16T05:27:29.058Z,18.94
2022-08-16T05:28:37.641Z,18.94
2022-08-16T05:29:57.557Z,18.97
2022-08-16T05:30:35.629Z,18.96
2022-08-16T05:31:30.405Z,19.01
2022-08-16T05:32:32.787Z,18.96
2022-08-16T05:33:29.538Z,18.96
2022-08-16T05:34:29.578Z,18.99
2022-08-16T05:35:29.690Z,18.93
2022-08-16T05:36:34.370Z,18.93
2022-08-16T05:37:39.568Z,18.97
2022-08-16T05:38:31.051Z,19.01
2022-08-16T05:39:30.054Z,19.07
2022-08-16T05:40:30.086Z,19.10
2022-08-16T05:41:30.602Z,19.10
2022-08-16T05:42:35.979Z,19.12
2022-08-16T05:43:32.208Z,19.13
2022-08-16T05:44:30.410Z,19.17
2022-08-16T05:45:30.502Z,19.20
2022-08-16T05:46:31.469Z,19.23
2022-08-16T05:47:30.672Z,19.25
2022-08-16T05:48:30.749Z,19.30
2022-08-16T05:49:38.911Z,19.32
2022-08-16T05:50:34.424Z,19.39
2022-08-16T05:51:39.090Z,19.40
2022-08-16T05:52:31.038Z,19.40
2022-08-16T05:53:31.127Z,19.46
2022-08-16T05:54:31.201Z,19.50
2022-08-16T05:55:31.280Z,19.55
2022-08-16T05:56:31.348Z,19.60
2022-08-16T05:57:34.506Z,19.67
2022-08-16T05:58:32.861Z,19.75
2022-08-16T05:59:31.604Z,19.78
2022-08-16T06:00:31.708Z,19.83
2022-08-16T06:01:32.973Z,19.87
2022-08-16T06:02:33.253Z,19.90
2022-08-16T06:03:31.945Z,19.97
2022-08-16T06:04:36.655Z,20.01
2022-08-16T06:05:32.099Z,20.05
2022-08-16T06:06:32.178Z,20.08
2022-08-16T06:07:32.421Z,20.13
2022-08-16T06:08:44.708Z,20.15
2022-08-16T06:09:42.627Z,20.19
2022-08-16T06:10:33.419Z,20.23
2022-08-16T06:11:32.598Z,20.30
2022-08-16T06:12:32.675Z,20.41
2022-08-16T06:13:32.890Z,20.75
2022-08-16T06:14:32.837Z,21.22
2022-08-16T06:15:32.934Z,21.79
2022-08-16T06:16:33.014Z,22.33
2022-08-16T06:17:41.417Z,22.75
2022-08-16T06:18:33.182Z,23.14
2022-08-16T06:19:33.842Z,23.54
2022-08-16T06:20:35.212Z,23.96
2022-08-16T06:21:36.702Z,24.45
2022-08-16T06:22:37.537Z,24.83
2022-08-16T06:23:33.595Z,24.79
2022-08-16T06:24:54.572Z,25.08
2022-08-16T06:25:36.437Z,25.27
2022-08-16T06:26:36.915Z,25.66
2022-08-16T06:27:40.707Z,25.91
2022-08-16T06:28:36.230Z,26.28
2022-08-16T06:29:34.084Z,26.66
2022-08-16T06:30:34.160Z,26.54
2022-08-16T06:31:45.269Z,26.56
2022-08-16T06:32:47.798Z,26.90
2022-08-16T06:33:41.052Z,26.87
2022-08-16T06:34:55.970Z,27.21
2022-08-16T06:35:40.135Z,27.65
2022-08-16T06:36:34.614Z,27.87
2022-08-16T06:37:36.917Z,27.88
2022-08-16T06:38:34.800Z,28.05
2022-08-16T06:39:34.873Z,28.18
2022-08-16T06:40:34.959Z,28.73
2022-08-16T06:41:39.688Z,29.21
2022-08-16T06:42:39.609Z,29.60
2022-08-16T06:43:35.412Z,29.94
2022-08-16T06:44:35.290Z,30.38
2022-08-16T06:45:35.395Z,30.70
2022-08-16T06:46:35.473Z,30.79
2022-08-16T06:47:53.848Z,31.07
2022-08-16T06:48:35.690Z,31.38
2022-08-16T06:49:35.759Z,31.76
2022-08-16T06:50:35.829Z,32.19
2022-08-16T06:51:46.151Z,32.47
2022-08-16T06:53:09.124Z,32.72
2022-08-16T06:53:36.394Z,32.83
2022-08-16T06:54:36.148Z,32.99
2022-08-16T06:55:38.366Z,33.00
2022-08-16T06:56:36.341Z,32.72
2022-08-16T06:57:39.764Z,32.65
2022-08-16T06:58:36.955Z,32.62
2022-08-16T06:59:52.725Z,32.80
2022-08-16T07:00:37.538Z,32.99
2022-08-16T07:01:43.202Z,33.21
2022-08-16T07:02:36.964Z,32.59
2022-08-16T07:03:54.970Z,32.25
2022-08-16T07:04:37.297Z,31.56
2022-08-16T07:05:42.040Z,31.60
2022-08-16T07:06:37.205Z,32.10
2022-08-16T07:07:37.313Z,32.49
2022-08-16T07:08:37.427Z,33.02
2022-08-16T07:09:37.488Z,33.38
2022-08-16T07:10:37.567Z,32.87
2022-08-16T07:11:48.254Z,33.28
2022-08-16T07:12:47.476Z,33.79
2022-08-16T07:14:37.898Z,34.95
2022-08-16T07:15:37.991Z,35.52
2022-08-16T07:16:38.041Z,35.91
2022-08-16T07:17:38.122Z,36.03
2022-08-16T07:18:38.232Z,36.12
2022-08-16T07:20:02.639Z,36.06
2022-08-16T07:20:47.957Z,36.16
2022-08-16T07:21:46.590Z,35.98
2022-08-16T07:22:39.828Z,36.21
2022-08-16T07:23:39.334Z,36.52
2022-08-16T07:24:45.872Z,36.79
2022-08-16T07:25:40.147Z,37.01
2022-08-16T07:26:38.889Z,36.72
2022-08-16T07:27:38.991Z,35.43
2022-08-16T07:28:39.095Z,35.62
2022-08-16T07:29:40.088Z,35.71
2022-08-16T07:30:45.833Z,34.93
2022-08-16T07:31:39.320Z,35.12
2022-08-16T07:32:39.379Z,35.28
2022-08-16T07:33:52.028Z,35.28
2022-08-16T07:34:48.252Z,35.50
2022-08-16T07:35:44.340Z,35.78
2022-08-16T07:36:39.697Z,35.98
2022-08-16T07:37:40.049Z,35.93
2022-08-16T07:38:39.889Z,35.81
2022-08-16T07:39:43.232Z,36.22
2022-08-16T07:40:59.747Z,36.05
2022-08-16T07:41:40.140Z,36.49
2022-08-16T07:42:40.212Z,36.97
2022-08-16T07:43:41.514Z,37.15
2022-08-16T07:44:50.298Z,36.46
2022-08-16T07:45:43.098Z,36.06
2022-08-16T07:46:40.556Z,35.81
2022-08-16T07:47:41.949Z,35.85
2022-08-16T07:48:40.746Z,36.15
2022-08-16T07:49:53.355Z,36.28
2022-08-16T07:50:56.950Z,35.95
2022-08-16T07:51:40.963Z,35.13
2022-08-16T07:52:41.098Z,35.43
2022-08-16T07:53:43.673Z,36.12
2022-08-16T07:54:46.002Z,36.82
2022-08-16T07:55:47.709Z,37.35
2022-08-16T07:56:41.365Z,38.04
2022-08-16T07:57:58.017Z,38.49
2022-08-16T07:58:41.568Z,38.70
2022-08-16T07:59:45.633Z,38.77
2022-08-16T08:00:41.718Z,38.75
2022-08-16T08:01:41.782Z,38.37
2022-08-16T08:02:41.874Z,37.59
2022-08-16T08:03:47.572Z,37.70
2022-08-16T08:04:42.058Z,37.70
2022-08-16T08:05:42.139Z,38.14
2022-08-16T08:06:42.229Z,37.99
2022-08-16T08:07:45.046Z,37.65
2022-08-16T08:08:51.044Z,37.85
2022-08-16T08:09:43.213Z,38.24
2022-08-16T08:10:42.579Z,38.41
2022-08-16T08:11:59.754Z,38.71
2022-08-16T08:12:43.774Z,38.82
2022-08-16T08:13:43.109Z,38.71
2022-08-16T08:14:42.908Z,39.07
2022-08-16T08:15:53.047Z,39.63
2022-08-16T08:16:45.408Z,40.07
2022-08-16T08:17:44.063Z,40.25
2022-08-16T08:18:43.252Z,39.63
2022-08-16T08:19:43.311Z,39.62
2022-08-16T08:20:43.415Z,39.51
2022-08-16T08:21:59.950Z,39.54
2022-08-16T08:22:43.667Z,39.63
2022-08-16T08:23:43.721Z,39.25
2022-08-16T08:24:44.148Z,39.19
2022-08-16T08:25:53.655Z,39.32
2022-08-16T08:26:44.462Z,39.53
2022-08-16T08:27:44.198Z,39.20
2022-08-16T08:28:44.077Z,39.10
2022-08-16T08:29:44.136Z,39.17
2022-08-16T08:31:02.656Z,39.32
2022-08-16T08:31:44.297Z,39.36
2022-08-16T08:32:59.914Z,39.46
2022-08-16T08:33:47.323Z,39.47
2022-08-16T08:34:46.537Z,39.66
2022-08-16T08:35:44.594Z,39.68
2022-08-16T08:36:44.707Z,39.17
2022-08-16T08:37:54.792Z,39.24
2022-08-16T08:38:46.253Z,39.16
2022-08-16T08:39:54.942Z,39.32
2022-08-16T08:40:45.921Z,39.57
2022-08-16T08:41:46.419Z,40.07
2022-08-16T08:42:45.208Z,40.24
2022-08-16T08:43:45.303Z,40.07
2022-08-16T08:44:45.379Z,39.57
2022-08-16T08:45:47.083Z,38.70
2022-08-16T08:46:45.583Z,38.77
2022-08-16T08:47:45.628Z,39.22
2022-08-16T08:48:45.764Z,39.51
2022-08-16T08:49:50.231Z,39.54
2022-08-16T08:50:50.256Z,39.06
2022-08-16T08:51:45.968Z,39.07
2022-08-16T08:52:47.779Z,38.81
2022-08-16T08:53:46.163Z,38.82
2022-08-16T08:54:46.237Z,38.71
2022-08-16T08:55:46.303Z,39.27
2022-08-16T08:56:46.422Z,39.69
2022-08-16T08:57:46.484Z,40.07
2022-08-16T08:58:54.816Z,40.24
2022-08-16T08:59:46.656Z,39.57
2022-08-16T09:00:51.365Z,39.53
2022-08-16T09:01:56.632Z,39.69
2022-08-16T09:02:52.122Z,39.51
2022-08-16T09:03:47.090Z,39.34
2022-08-16T09:04:47.517Z,38.58
2022-08-16T09:05:51.248Z,38.45
2022-08-16T09:06:47.251Z,38.55
2022-08-16T09:08:01.995Z,38.98
2022-08-16T09:08:47.623Z,39.47
2022-08-16T09:09:47.539Z,40.09
2022-08-16T09:10:47.614Z,40.25
2022-08-16T09:11:53.337Z,40.19
2022-08-16T09:12:48.009Z,40.18
2022-08-16T09:13:48.390Z,40.11
2022-08-16T09:14:51.137Z,40.18
2022-08-16T09:15:48.046Z,40.54
2022-08-16T09:17:04.078Z,41.04
2022-08-16T09:17:52.092Z,41.10
2022-08-16T09:18:55.123Z,40.97
2022-08-16T09:19:50.295Z,41.04
2022-08-16T09:20:59.269Z,41.21
2022-08-16T09:21:48.526Z,40.85
2022-08-16T09:22:52.263Z,41.13
2022-08-16T09:23:48.714Z,41.26
2022-08-16T09:24:53.168Z,41.33
2022-08-16T09:25:48.854Z,41.36
2022-08-16T09:26:48.905Z,41.31
2022-08-16T09:27:58.046Z,41.31
2022-08-16T09:29:16.711Z,41.44
2022-08-16T09:29:49.164Z,40.95
2022-08-16T09:30:49.220Z,40.21
2022-08-16T09:31:53.613Z,39.63
2022-08-16T09:32:49.594Z,39.54
2022-08-16T09:33:52.018Z,39.38
2022-08-16T09:34:49.583Z,39.59
2022-08-16T09:35:52.921Z,39.81
2022-08-16T09:36:49.730Z,40.04
2022-08-16T09:38:00.951Z,40.21
2022-08-16T09:38:49.931Z,40.73
2022-08-16T09:39:50.514Z,41.29
2022-08-16T09:40:50.123Z,41.62
2022-08-16T09:41:53.468Z,41.86
2022-08-16T09:42:58.655Z,42.08
2022-08-16T09:43:59.388Z,41.39
2022-08-16T09:45:10.951Z,41.31
2022-08-16T09:45:50.533Z,40.92
2022-08-16T09:46:52.137Z,40.46
2022-08-16T09:47:57.378Z,40.24
2022-08-16T09:48:51.181Z,40.31
2022-08-16T09:49:51.327Z,40.38
2022-08-16T09:50:50.923Z,40.39
2022-08-16T09:51:51.028Z,40.71
2022-08-16T09:52:51.187Z,40.97
2022-08-16T09:53:53.720Z,41.32
2022-08-16T09:54:51.273Z,41.57
2022-08-16T09:55:51.376Z,41.21
2022-08-16T09:56:53.655Z,41.16
2022-08-16T09:57:52.922Z,40.19
2022-08-16T09:59:04.961Z,40.04
2022-08-16T09:59:56.172Z,39.72
2022-08-16T10:00:51.774Z,39.53
2022-08-16T10:01:51.886Z,39.32
2022-08-16T10:02:51.948Z,39.31
2022-08-16T10:04:02.457Z,39.12
2022-08-16T10:04:54.895Z,39.05
2022-08-16T10:05:52.214Z,39.07
2022-08-16T10:06:52.311Z,38.55
2022-08-16T10:07:55.869Z,38.38
2022-08-16T10:09:05.375Z,38.31
2022-08-16T10:09:55.018Z,37.81
2022-08-16T10:10:52.576Z,37.66
2022-08-16T10:11:52.674Z,37.68
2022-08-16T10:12:55.899Z,37.99
2022-08-16T10:13:52.859Z,38.19
2022-08-16T10:14:52.931Z,38.45
2022-08-16T10:15:55.098Z,38.38
2022-08-16T10:16:59.783Z,38.22
2022-08-16T10:18:01.714Z,38.06
2022-08-16T10:19:06.687Z,37.99
2022-08-16T10:19:53.358Z,38.10
2022-08-16T10:20:53.436Z,38.25
2022-08-16T10:21:56.442Z,38.38
2022-08-16T10:23:02.059Z,38.49
2022-08-16T10:23:53.813Z,38.14
2022-08-16T10:24:55.815Z,37.81
2022-08-16T10:27:19.483Z,37.35
2022-08-16T10:27:46.166Z,37.40
2022-08-16T10:28:05.912Z,37.50
2022-08-16T10:28:54.135Z,37.50
2022-08-16T10:30:01.058Z,37.45
2022-08-16T10:30:56.351Z,37.09
2022-08-16T10:31:54.376Z,36.87
2022-08-16T10:32:54.464Z,36.83
2022-08-16T10:33:54.583Z,36.96
2022-08-16T10:34:54.622Z,36.94
2022-08-16T10:35:57.640Z,36.86
2022-08-16T10:36:54.822Z,36.94
2022-08-16T10:37:54.920Z,36.59
2022-08-16T10:38:55.021Z,36.67
2022-08-16T10:39:55.758Z,36.79
2022-08-16T10:40:55.161Z,36.72
2022-08-16T10:41:55.269Z,36.82
2022-08-16T10:42:55.345Z,36.64
2022-08-16T10:43:55.467Z,36.30
2022-08-16T10:44:55.499Z,36.00
2022-08-16T10:45:59.723Z,35.80
2022-08-16T10:46:55.669Z,35.65
2022-08-16T10:48:02.677Z,35.66
2022-08-16T10:48:56.087Z,35.66
2022-08-16T10:49:55.930Z,35.59
2022-08-16T10:50:56.008Z,35.55
2022-08-16T10:52:01.900Z,35.49
2022-08-16T10:52:59.174Z,35.15
2022-08-16T10:53:58.062Z,34.90
2022-08-16T10:54:59.654Z,34.91
2022-08-16T10:55:57.890Z,35.00
2022-08-16T10:56:57.101Z,35.12
2022-08-16T10:57:56.589Z,35.06
2022-08-16T10:58:56.731Z,35.03
2022-08-16T10:59:58.528Z,35.10
2022-08-16T11:00:57.726Z,35.09
2022-08-16T11:03:01.319Z,34.84
2022-08-16T11:03:57.713Z,34.84
2022-08-16T11:05:12.562Z,34.88
2022-08-16T11:06:00.472Z,34.91
2022-08-16T11:07:57.612Z,34.90
2022-08-16T11:10:19.893Z,34.67
2022-08-16T11:11:04.696Z,34.53
2022-08-16T11:12:14.251Z,34.12
2022-08-16T11:13:21.172Z,34.11
2022-08-16T11:14:05.976Z,34.21
2022-08-16T11:15:17.132Z,34.42
2022-08-16T11:15:58.096Z,34.53
2022-08-16T11:17:02.192Z,34.71
2022-08-16T11:19:05.591Z,34.87
2022-08-16T11:20:40.642Z,34.86
2022-08-16T11:20:58.482Z,34.78
2022-08-16T11:22:38.483Z,34.78
2022-08-16T11:22:58.646Z,34.81
2022-08-16T11:23:59.813Z,34.87
2022-08-16T11:25:57.890Z,34.78
2022-08-16T11:26:22.800Z,34.65
2022-08-16T11:27:59.063Z,34.69
2022-08-16T11:29:15.130Z,34.71
2022-08-16T11:29:59.264Z,34.23
2022-08-16T11:30:59.304Z,33.93
2022-08-16T11:31:59.397Z,33.93
2022-08-16T11:32:59.477Z,34.09
2022-08-16T11:33:59.563Z,34.27
2022-08-16T11:35:13.968Z,34.38
2022-08-16T11:37:01.004Z,34.58
2022-08-16T11:38:46.620Z,34.72
2022-08-16T11:39:00.699Z,34.87
2022-08-16T11:40:00.277Z,34.99
2022-08-16T11:41:00.115Z,35.13
2022-08-16T11:42:00.205Z,35.22
2022-08-16T11:43:00.261Z,35.34
2022-08-16T11:44:00.359Z,35.42
2022-08-16T11:45:00.444Z,35.39
2022-08-16T11:46:34.143Z,35.46
2022-08-16T11:47:00.593Z,35.58
2022-08-16T11:48:00.666Z,35.56
2022-08-16T11:49:00.743Z,35.25
2022-08-16T11:50:00.852Z,35.09
2022-08-16T11:51:00.928Z,35.03
2022-08-16T11:52:01.016Z,35.03
2022-08-16T11:53:02.380Z,35.05
2022-08-16T11:54:01.187Z,35.00
2022-08-16T11:55:01.252Z,34.90
2022-08-16T11:56:01.320Z,34.80
2022-08-16T11:57:01.408Z,34.80
2022-08-16T11:58:01.520Z,34.67
2022-08-16T11:59:01.575Z,34.26
2022-08-16T12:00:01.688Z,33.60
2022-08-16T12:01:01.755Z,32.73
2022-08-16T12:02:04.160Z,32.40
2022-08-16T12:03:01.945Z,32.32
2022-08-16T12:04:02.110Z,32.61
2022-08-16T12:05:02.124Z,32.93
2022-08-16T12:06:02.184Z,33.28
2022-08-16T12:07:02.254Z,33.55
2022-08-16T12:08:05.358Z,33.78
2022-08-16T12:09:02.426Z,34.01
2022-08-16T12:10:02.519Z,34.23
2022-08-16T12:11:02.776Z,34.34
2022-08-16T12:12:03.510Z,34.21
2022-08-16T12:13:03.017Z,33.96
2022-08-16T12:14:04.736Z,33.90
2022-08-16T12:15:02.927Z,33.92
2022-08-16T12:16:02.989Z,33.97
2022-08-16T12:17:03.080Z,34.08
2022-08-16T12:18:03.180Z,34.24
2022-08-16T12:19:03.266Z,34.37
2022-08-16T12:20:04.839Z,34.48
2022-08-16T12:21:03.877Z,34.49
2022-08-16T12:22:05.483Z,34.42
2022-08-16T12:23:03.576Z,34.36
2022-08-16T12:24:03.663Z,34.40
2022-08-16T12:25:03.751Z,34.45
2022-08-16T12:26:06.293Z,34.42
2022-08-16T12:27:03.908Z,34.37
2022-08-16T12:28:03.996Z,34.36
2022-08-16T12:29:04.069Z,34.36
2022-08-16T12:30:04.156Z,34.28
2022-08-16T12:31:04.211Z,34.15
2022-08-16T12:32:36.116Z,33.94
2022-08-16T12:33:04.377Z,33.81
2022-08-16T12:34:04.469Z,33.56
2022-08-16T12:35:04.563Z,33.34
2022-08-16T12:36:04.622Z,32.95
2022-08-16T12:37:08.996Z,32.73
2022-08-16T12:38:37.806Z,32.72
2022-08-16T12:39:04.867Z,32.61
2022-08-16T12:40:05.192Z,32.53
2022-08-16T12:41:05.043Z,32.53
2022-08-16T12:42:05.121Z,32.50
2022-08-16T12:43:05.192Z,32.43
2022-08-16T12:44:05.290Z,32.46
2022-08-16T12:45:05.384Z,32.43
2022-08-16T12:46:05.447Z,32.41
2022-08-16T12:47:05.524Z,32.39
2022-08-16T12:48:31.502Z,32.31
2022-08-16T12:49:05.691Z,32.13
2022-08-16T12:50:07.585Z,32.05
2022-08-16T12:51:13.719Z,32.02
2022-08-16T12:52:05.963Z,32.06
2022-08-16T12:53:06.031Z,32.10
2022-08-16T12:54:06.111Z,32.06
2022-08-16T12:55:06.187Z,32.05
2022-08-16T12:56:06.326Z,32.07
2022-08-16T12:57:06.387Z,32.10
2022-08-16T12:58:14.048Z,32.14
2022-08-16T12:59:06.529Z,32.07
2022-08-16T13:00:06.612Z,31.97